Time;durP1;ratioP1;P1;durP2;ratioP2;P2;SDS_P1;SDS_P2;PMS_P1;PMS_P2;Temp;Humidity;BMP_temperature;BMP_pressure;BME280_temperature;BME280_humidity;BME280_pressure;Samples;Min_cycle;Max_cycle;Signal;HPM_P1;HPM_P2
2022/07/30 00:02:09;;;;;;;2.55;1.88;;;21.50;80.20;;;;;;5034845;28;20454;-70
2022/07/30 00:04:37;;;;;;;6.10;2.80;;;21.40;80.90;;;;;;5027325;28;20209;-70
2022/07/30 00:07:04;;;;;;;3.78;2.10;;;21.40;81.10;;;;;;5032910;28;20175;-70
2022/07/30 00:09:32;;;;;;;2.40;1.80;;;21.40;80.60;;;;;;5034653;28;20193;-69
2022/07/30 00:11:58;;;;;;;2.92;1.92;;;21.40;80.70;;;;;;5033578;28;20355;-69
2022/07/30 00:14:25;;;;;;;3.85;2.03;;;21.40;81.00;;;;;;5032521;28;20186;-69
2022/07/30 00:16:51;;;;;;;2.53;2.00;;;21.30;81.20;;;;;;5026050;28;20403;-67
2022/07/30 00:19:16;;;;;;;4.05;2.35;;;21.30;81.40;;;;;;5031449;28;20266;-70
2022/07/30 00:21:42;;;;;;;3.72;2.20;;;21.30;81.60;;;;;;5031850;28;20217;-70
2022/07/30 00:24:10;;;;;;;8.55;2.28;;;21.20;81.70;;;;;;5039086;28;20186;-69
2022/07/30 00:26:38;;;;;;;3.50;2.47;;;21.20;81.90;;;;;;5027859;28;20206;-70
2022/07/30 00:29:06;;;;;;;3.15;2.15;;;21.20;82.70;;;;;;5031079;28;20191;-70
2022/07/30 00:31:32;;;;;;;2.97;2.17;;;21.10;82.70;;;;;;5032080;28;20245;-70
2022/07/30 00:34:00;;;;;;;3.05;2.17;;;21.00;82.50;;;;;;5031326;28;20195;-70
2022/07/30 00:36:26;;;;;;;3.25;2.40;;;21.00;82.80;;;;;;5032051;28;20194;-70
2022/07/30 00:38:54;;;;;;;2.50;2.03;;;21.00;83.10;;;;;;5026127;28;20178;-70
2022/07/30 00:41:20;;;;;;;4.57;2.20;;;20.90;83.80;;;;;;5033365;28;20221;-70
2022/07/30 00:43:45;;;;;;;3.85;2.20;;;20.90;83.90;;;;;;5030063;28;20175;-69
2022/07/30 00:46:13;;;;;;;3.95;2.50;;;20.80;83.80;;;;;;5029111;28;20198;-69
2022/07/30 00:48:39;;;;;;;2.33;2.00;;;20.80;84.10;;;;;;5032922;28;20221;-69
2022/07/30 00:51:05;;;;;;;6.38;2.53;;;20.70;84.30;;;;;;5032056;28;20245;-70
2022/07/30 00:53:37;;;;;;;3.22;2.00;;;20.70;84.60;;;;;;5030773;28;20188;-70
2022/07/30 00:56:03;;;;;;;2.80;2.25;;;20.70;84.70;;;;;;5029388;28;20194;-70
2022/07/30 00:58:29;;;;;;;3.75;2.47;;;20.70;85.20;;;;;;5036303;28;20294;-70
2022/07/30 01:00:55;;;;;;;3.58;2.28;;;20.60;85.20;;;;;;5029408;28;20179;-69
2022/07/30 01:03:25;;;;;;;2.50;2.15;;;20.60;85.60;;;;;;5031832;28;20198;-71
2022/07/30 01:05:53;;;;;;;4.68;2.42;;;20.60;86.20;;;;;;5032256;28;20167;-71
2022/07/30 01:08:19;;;;;;;2.75;2.28;;;20.60;86.00;;;;;;5032565;28;20272;-68
2022/07/30 01:10:44;;;;;;;3.90;2.17;;;20.60;86.20;;;;;;5033228;28;20185;-70
2022/07/30 01:13:11;;;;;;;3.13;2.50;;;20.50;86.30;;;;;;5031674;28;20186;-70
2022/07/30 01:15:37;;;;;;;2.70;2.10;;;20.50;86.40;;;;;;5029470;28;20212;-69
2022/07/30 01:18:06;;;;;;;3.70;2.33;;;20.50;86.50;;;;;;5031309;28;20194;-70
2022/07/30 01:20:39;;;;;;;4.10;2.30;;;20.50;87.10;;;;;;5029055;28;20269;-68
2022/07/30 01:23:11;;;;;;;3.78;2.40;;;20.40;87.40;;;;;;5028042;28;20174;-69
2022/07/30 01:26:02;;;;;;;2.90;2.10;;;20.40;87.50;;;;;;5024652;28;20179;-69
2022/07/30 01:28:45;;;;;;;2.63;2.20;;;20.40;88.30;;;;;;5028645;28;20271;-70
2022/07/30 01:31:14;;;;;;;3.67;2.10;;;20.30;87.80;;;;;;5032534;28;20196;-69
2022/07/30 01:33:45;;;;;;;3.00;2.55;;;20.30;87.90;;;;;;5028503;28;20190;-69
2022/07/30 01:36:15;;;;;;;5.00;2.30;;;20.30;88.90;;;;;;5030510;28;20210;-69
2022/07/30 01:38:47;;;;;;;2.42;2.20;;;20.20;88.30;;;;;;5030315;28;20178;-69
2022/07/30 01:41:14;;;;;;;2.65;2.25;;;20.20;89.10;;;;;;5029748;28;20190;-69
2022/07/30 01:43:45;;;;;;;2.25;2.05;;;20.20;88.70;;;;;;5029840;28;20198;-69
2022/07/30 01:46:13;;;;;;;4.78;2.30;;;20.20;89.50;;;;;;5027528;28;20189;-69
2022/07/30 01:48:42;;;;;;;4.03;2.45;;;20.20;89.30;;;;;;5024666;28;20236;-68
2022/07/30 01:51:12;;;;;;;3.75;2.15;;;20.10;89.60;;;;;;5028597;28;20210;-87
2022/07/30 01:53:40;;;;;;;2.88;2.28;;;20.10;89.80;;;;;;5047274;28;20212;-85
2022/07/30 01:56:08;;;;;;;3.90;2.10;;;20.10;89.70;;;;;;5027807;28;20196;-86
2022/07/30 01:58:37;;;;;;;2.35;1.98;;;20.10;90.00;;;;;;5026887;28;20213;-86
2022/07/30 02:01:03;;;;;;;2.78;2.13;;;20.00;90.10;;;;;;5029576;28;20197;-87
2022/07/30 02:03:35;;;;;;;3.05;2.47;;;20.00;90.10;;;;;;5027532;28;20198;-89
2022/07/30 02:06:21;;;;;;;3.70;2.08;;;20.00;90.20;;;;;;5028116;28;20181;-87
2022/07/30 02:08:49;;;;;;;4.55;2.45;;;20.10;90.80;;;;;;5026435;28;20221;-90
2022/07/30 02:12:27;;;;;;;3.97;2.45;;;20.00;90.20;;;;;;5034263;28;20203;-91
2022/07/30 02:14:16;;;;;;;3.80;2.05;;;20.00;90.40;;;;;;5032040;28;20191;-84
2022/07/30 02:16:44;;;;;;;2.60;2.40;;;20.00;90.90;;;;;;5035498;28;20190;-91
2022/07/30 02:19:14;;;;;;;4.13;2.50;;;20.00;90.40;;;;;;5028987;28;20181;-86
2022/07/30 02:21:56;;;;;;;3.03;2.60;;;20.00;90.40;;;;;;5030786;28;20217;-91
2022/07/30 02:24:27;;;;;;;2.53;2.33;;;20.00;90.90;;;;;;5027703;28;20170;-89
2022/07/30 02:26:58;;;;;;;4.03;2.13;;;20.00;90.60;;;;;;5027371;28;20170;-89
2022/07/30 02:29:27;;;;;;;3.97;2.50;;;20.00;90.50;;;;;;5030535;28;20390;-87
2022/07/30 02:31:55;;;;;;;3.13;2.30;;;20.00;90.50;;;;;;5030355;28;20218;-80
2022/07/30 02:34:23;;;;;;;2.40;2.20;;;20.00;90.70;;;;;;5030144;28;20205;-90
2022/07/30 02:36:50;;;;;;;3.35;2.13;;;20.00;90.80;;;;;;5027808;28;20202;-89
2022/07/30 02:39:20;;;;;;;4.85;2.72;;;20.00;90.60;;;;;;5029169;28;20204;-85
2022/07/30 02:41:47;;;;;;;3.65;2.88;;;20.00;90.70;;;;;;5028358;28;20198;-91
2022/07/30 02:44:17;;;;;;;3.05;2.45;;;20.00;90.70;;;;;;5028794;28;20175;-90
2022/07/30 02:46:44;;;;;;;3.50;2.45;;;19.90;90.80;;;;;;5028017;28;20182;-84
2022/07/30 02:49:13;;;;;;;2.63;2.33;;;19.90;91.10;;;;;;5027600;28;20186;-91
2022/07/30 02:51:41;;;;;;;3.28;2.50;;;19.90;91.30;;;;;;5027332;28;20202;-88
2022/07/30 02:54:09;;;;;;;2.95;2.60;;;19.90;90.90;;;;;;5027588;28;20282;-91
2022/07/30 02:56:37;;;;;;;3.78;2.33;;;19.80;91.00;;;;;;5030404;28;20209;-79
2022/07/30 02:59:05;;;;;;;3.30;2.20;;;19.80;91.00;;;;;;5029735;28;20209;-87
2022/07/30 03:01:35;;;;;;;2.90;2.38;;;19.80;90.90;;;;;;5030943;28;20178;-89
2022/07/30 03:04:05;;;;;;;2.97;2.40;;;19.80;91.00;;;;;;5031378;28;20205;-83
2022/07/30 03:06:36;;;;;;;3.63;2.58;;;19.80;91.10;;;;;;5032831;28;20202;-77
2022/07/30 03:09:07;;;;;;;3.40;2.30;;;19.80;91.40;;;;;;5041120;28;20202;-79
2022/07/30 03:11:33;;;;;;;2.97;2.30;;;19.80;91.60;;;;;;5035742;28;20190;-87
2022/07/30 03:13:59;;;;;;;2.97;2.20;;;19.70;91.30;;;;;;5029509;28;20202;-89
2022/07/30 03:16:27;;;;;;;2.95;2.28;;;19.70;91.20;;;;;;5028716;28;20245;-87
2022/07/30 03:18:53;;;;;;;3.05;2.40;;;19.70;91.30;;;;;;5028222;28;20197;-88
2022/07/30 03:21:25;;;;;;;2.70;2.45;;;19.70;91.30;;;;;;5025269;28;20213;-88
2022/07/30 03:23:55;;;;;;;4.40;2.60;;;19.70;91.60;;;;;;5029124;28;20194;-89
2022/07/30 03:26:23;;;;;;;2.75;2.33;;;19.60;91.60;;;;;;5028131;28;20262;-88
2022/07/30 03:28:52;;;;;;;4.93;2.40;;;19.60;91.50;;;;;;5028889;28;20217;-89
2022/07/30 03:31:20;;;;;;;3.05;2.75;;;19.60;91.60;;;;;;5028440;28;20182;-90
2022/07/30 03:33:46;;;;;;;3.88;2.28;;;19.50;91.60;;;;;;5027181;28;20201;-87
2022/07/30 03:36:13;;;;;;;2.60;2.08;;;19.50;91.70;;;;;;5030594;28;20197;-90
2022/07/30 03:38:41;;;;;;;2.47;2.15;;;19.50;91.80;;;;;;5032136;28;20194;-89
2022/07/30 03:41:07;;;;;;;4.30;2.50;;;19.50;92.10;;;;;;5028063;28;20201;-87
2022/07/30 03:43:34;;;;;;;3.25;2.30;;;19.40;92.00;;;;;;5028644;28;20182;-88
2022/07/30 03:46:06;;;;;;;4.55;2.63;;;19.40;92.20;;;;;;5028069;28;20178;-91
2022/07/30 03:48:35;;;;;;;2.80;2.40;;;19.40;92.30;;;;;;5029048;28;20213;-82
2022/07/30 03:51:09;;;;;;;3.25;2.45;;;19.40;92.30;;;;;;5031797;28;20255;-88
2022/07/30 03:53:40;;;;;;;4.95;2.90;;;19.30;92.60;;;;;;5032679;28;20202;-91
2022/07/30 03:56:06;;;;;;;3.45;2.35;;;19.30;92.70;;;;;;5030468;28;20216;-84
2022/07/30 03:58:35;;;;;;;3.70;2.40;;;19.30;92.50;;;;;;5031481;28;20281;-86
2022/07/30 04:01:00;;;;;;;2.97;2.17;;;19.30;92.60;;;;;;5033431;28;20185;-87
2022/07/30 04:03:28;;;;;;;3.13;2.40;;;19.30;92.60;;;;;;5034014;28;20193;-90
2022/07/30 04:05:57;;;;;;;4.63;2.47;;;19.30;92.80;;;;;;5031760;28;20197;-91
2022/07/30 04:08:23;;;;;;;4.20;2.88;;;19.30;92.90;;;;;;5032315;28;20204;-88
2022/07/30 04:10:50;;;;;;;4.15;2.70;;;19.20;92.80;;;;;;5031370;28;20170;-85
2022/07/30 04:13:16;;;;;;;5.40;3.10;;;19.20;92.90;;;;;;5029815;28;20265;-85
2022/07/30 04:16:23;;;;;;;5.25;2.67;;;19.20;93.00;;;;;;5032859;28;20217;-82
2022/07/30 04:18:52;;;;;;;3.70;2.80;;;19.20;93.50;;;;;;5032834;28;20206;-89
2022/07/30 04:21:20;;;;;;;3.83;2.63;;;19.20;93.20;;;;;;5031014;28;20185;-89
2022/07/30 04:24:01;;;;;;;;;;;;;;;;;;;;;
2022/07/30 04:27:03;;;;;;;;;;;;;;;;;;;;;
2022/07/30 04:33:15;;;;;;;3.90;2.47;;;19.00;94.00;;;;;;5031988;28;20213;-90
2022/07/30 04:35:43;;;;;;;3.33;2.50;;;19.00;94.30;;;;;;5028292;28;20222;-88
2022/07/30 04:38:19;;;;;;;;;;;;;;;;;;;;;
2022/07/30 04:41:19;;;;;;;;;;;;;;;;;;;;;
2022/07/30 04:47:29;;;;;;;3.58;2.63;;;18.90;94.60;;;;;;5040331;28;20238;-86
2022/07/30 04:49:56;;;;;;;2.95;2.55;;;18.90;94.10;;;;;;5035757;28;20209;-91
2022/07/30 04:52:25;;;;;;;4.63;2.97;;;18.90;94.20;;;;;;5029277;28;20193;-90
2022/07/30 04:55:19;;;;;;;10.25;2.80;;;18.80;94.20;;;;;;5032984;28;20175;-93
2022/07/30 04:57:47;;;;;;;3.45;2.70;;;18.80;94.90;;;;;;5032970;28;20214;-89
2022/07/30 05:00:23;;;;;;;3.35;2.80;;;18.80;94.40;;;;;;5031694;28;20183;-91
2022/07/30 05:02:57;;;;;;;4.65;2.85;;;18.80;95.10;;;;;;5030225;28;20200;-86
2022/07/30 05:05:26;;;;;;;4.22;2.85;;;18.80;94.80;;;;;;5027472;28;20270;-83
2022/07/30 05:08:37;;;;;;;;;;;;;;;;;;;;;
2022/07/30 05:18:05;;;;;;;;;;;;;;;;;;;;;
2022/07/30 05:23:57;;;;;;;4.70;3.85;;;18.80;95.70;;;;;;5008650;28;20206;-87
2022/07/30 05:27:16;;;;;;;4.70;3.35;;;18.90;96.00;;;;;;5029466;28;20201;-91
2022/07/30 05:30:28;;;;;;;4.60;3.00;;;19.00;96.50;;;;;;5028011;28;20204;-90
2022/07/30 05:33:06;;;;;;;4.47;3.33;;;19.00;96.50;;;;;;5000755;28;20193;-91
2022/07/30 05:38:59;;;;;;;4.20;3.20;;;19.00;96.10;;;;;;5030252;28;20222;-90
2022/07/30 05:42:38;;;;;;;;;;;;;;;;;;;;;
2022/07/30 05:48:30;;;;;;;5.20;2.92;;;19.10;97.30;;;;;;5026803;28;20195;-88
2022/07/30 06:00:34;;;;;;;;;;;;;;;;;;;;;
2022/07/30 06:03:02;;;;;;;4.35;3.20;;;19.30;98.00;;;;;;5028249;28;20253;-89
2022/07/30 06:06:14;;;;;;;;;;;;;;;;;;;;;
2022/07/30 06:09:31;;;;;;;6.13;4.13;;;19.40;98.50;;;;;;5027688;28;20274;-92
2022/07/30 06:12:15;;;;;;;6.57;4.45;;;19.40;99.00;;;;;;5034199;28;20181;-87
2022/07/30 06:14:45;;;;;;;5.35;4.30;;;19.40;99.90;;;;;;5037642;28;20202;-71
2022/07/30 06:17:10;;;;;;;5.93;4.00;;;19.40;99.30;;;;;;5054103;28;20203;-74
2022/07/30 06:19:36;;;;;;;6.57;4.32;;;19.50;99.30;;;;;;5038263;28;20201;-74
2022/07/30 06:22:02;;;;;;;5.80;3.85;;;19.50;99.20;;;;;;5031588;28;20225;-73
2022/07/30 06:24:27;;;;;;;10.93;4.78;;;19.50;99.20;;;;;;5036787;28;20186;-69
2022/07/30 06:26:53;;;;;;;7.93;4.72;;;19.60;99.30;;;;;;5035462;28;20196;-72
2022/07/30 06:29:21;;;;;;;7.72;5.15;;;19.60;99.50;;;;;;5026766;28;20207;-72
2022/07/30 06:31:47;;;;;;;6.50;4.65;;;19.60;99.90;;;;;;5036640;28;20183;-72
2022/07/30 06:34:14;;;;;;;6.57;4.35;;;19.60;99.90;;;;;;5036818;28;20200;-70
2022/07/30 06:36:42;;;;;;;6.78;4.65;;;19.60;99.90;;;;;;5035558;28;20217;-73
2022/07/30 06:39:08;;;;;;;7.47;4.50;;;19.60;99.90;;;;;;5033453;28;20189;-73
2022/07/30 06:41:37;;;;;;;7.63;4.43;;;19.70;99.90;;;;;;5034384;28;20175;-73
2022/07/30 06:44:02;;;;;;;6.72;4.18;;;19.70;99.90;;;;;;5037583;28;20259;-70
2022/07/30 06:46:28;;;;;;;7.03;5.20;;;19.70;99.90;;;;;;5037174;28;20197;-71
2022/07/30 06:48:54;;;;;;;6.00;4.72;;;19.80;99.90;;;;;;5033940;28;20196;-73
2022/07/30 06:51:19;;;;;;;7.97;4.88;;;19.80;99.90;;;;;;5042882;28;20203;-72
2022/07/30 06:53:45;;;;;;;6.90;5.32;;;19.90;99.90;;;;;;5038810;28;20267;-74
2022/07/30 06:56:16;;;;;;;6.32;4.60;;;19.90;99.90;;;;;;5036314;28;20213;-73
2022/07/30 06:58:44;;;;;;;5.85;4.55;;;19.90;99.90;;;;;;5033758;28;20198;-72
2022/07/30 07:01:12;;;;;;;6.47;4.35;;;19.90;99.90;;;;;;5036563;28;20178;-70
2022/07/30 07:03:40;;;;;;;6.10;4.97;;;20.00;99.90;;;;;;5037516;28;20207;-73
2022/07/30 07:06:06;;;;;;;6.97;4.63;;;20.00;99.90;;;;;;5043306;28;20174;-71
2022/07/30 07:08:35;;;;;;;6.97;4.60;;;20.10;99.90;;;;;;5038080;28;20183;-73
2022/07/30 07:11:03;;;;;;;7.72;5.13;;;20.10;99.90;;;;;;5037898;28;20198;-70
2022/07/30 07:13:31;;;;;;;6.20;3.90;;;20.10;99.90;;;;;;5031462;28;20190;-74
2022/07/30 07:15:59;;;;;;;7.53;5.07;;;20.20;99.90;;;;;;5031983;28;20198;-73
2022/07/30 07:18:25;;;;;;;7.63;5.28;;;20.20;99.90;;;;;;5035998;28;20314;-74
2022/07/30 07:20:50;;;;;;;7.68;4.60;;;20.30;99.90;;;;;;5034253;28;20175;-74
2022/07/30 07:23:16;;;;;;;7.28;4.60;;;20.30;99.90;;;;;;5032757;28;20205;-72
2022/07/30 07:25:44;;;;;;;6.65;4.78;;;20.40;99.90;;;;;;5037014;28;20203;-72
2022/07/30 07:28:12;;;;;;;8.95;4.15;;;20.50;99.90;;;;;;5039276;28;20202;-71
2022/07/30 07:30:38;;;;;;;7.18;4.72;;;20.50;99.90;;;;;;5037072;28;20253;-73
2022/07/30 07:33:03;;;;;;;7.53;5.22;;;20.60;99.90;;;;;;5037500;28;20190;-74
2022/07/30 07:35:29;;;;;;;7.20;4.50;;;20.60;99.90;;;;;;5034813;28;20252;-73
2022/07/30 07:37:55;;;;;;;8.55;5.03;;;20.70;99.90;;;;;;5041658;28;20539;-70
2022/07/30 07:40:20;;;;;;;6.03;4.47;;;20.80;99.90;;;;;;5042634;28;20209;-70
2022/07/30 07:42:46;;;;;;;6.50;4.25;;;20.80;99.90;;;;;;5034213;28;20213;-74
2022/07/30 07:45:14;;;;;;;6.78;4.45;;;20.90;99.90;;;;;;5042330;28;20199;-71
2022/07/30 07:47:47;;;;;;;5.20;4.28;;;20.80;99.90;;;;;;5043239;28;20209;-71
2022/07/30 07:50:15;;;;;;;9.43;4.30;;;20.90;99.90;;;;;;5038158;28;20202;-72
2022/07/30 07:52:43;;;;;;;6.85;4.47;;;20.90;99.90;;;;;;5040685;28;20199;-70
2022/07/30 07:55:09;;;;;;;6.80;4.03;;;20.90;99.90;;;;;;5041609;28;20182;-73
2022/07/30 07:57:42;;;;;;;10.68;5.10;;;21.00;99.90;;;;;;5043231;28;20195;-73
2022/07/30 08:00:13;;;;;;;6.07;4.38;;;21.00;99.90;;;;;;5042680;28;20248;-72
2022/07/30 08:02:41;;;;;;;8.15;4.57;;;21.00;99.90;;;;;;5039421;28;20253;-73
2022/07/30 08:05:13;;;;;;;6.32;4.20;;;21.10;99.90;;;;;;5037237;28;20237;-73
2022/07/30 08:07:39;;;;;;;6.07;4.30;;;21.20;99.90;;;;;;5036069;28;20183;-74
2022/07/30 08:10:05;;;;;;;8.00;4.97;;;21.20;99.90;;;;;;5036359;28;20206;-71
2022/07/30 08:12:32;;;;;;;8.63;5.13;;;21.30;99.90;;;;;;5042611;28;20193;-70
2022/07/30 08:15:00;;;;;;;11.35;6.50;;;21.30;99.90;;;;;;5054890;28;20191;-73
2022/07/30 08:17:28;;;;;;;11.52;5.55;;;21.40;99.90;;;;;;5035470;28;20225;-73
2022/07/30 08:20:00;;;;;;;7.22;4.68;;;21.40;99.90;;;;;;5043053;28;20170;-71
2022/07/30 08:22:26;;;;;;;7.00;4.72;;;21.50;99.90;;;;;;5042919;28;20257;-72
2022/07/30 08:24:52;;;;;;;7.82;5.47;;;21.50;99.90;;;;;;5039031;28;20188;-74
2022/07/30 08:27:19;;;;;;;8.45;5.55;;;21.60;99.90;;;;;;5040750;28;20186;-72
2022/07/30 08:29:45;;;;;;;8.15;4.68;;;21.60;99.90;;;;;;5041639;28;20438;-72
2022/07/30 08:32:11;;;;;;;9.48;5.22;;;21.70;99.90;;;;;;5039209;28;20230;-69
2022/07/30 08:34:41;;;;;;;10.02;5.68;;;21.80;99.90;;;;;;5036817;28;20170;-69
2022/07/30 08:37:07;;;;;;;5.90;4.60;;;21.80;99.90;;;;;;5039331;28;20295;-72
2022/07/30 08:39:32;;;;;;;8.23;5.15;;;21.90;99.90;;;;;;5042368;28;20191;-69
2022/07/30 08:41:59;;;;;;;8.52;4.53;;;22.00;99.90;;;;;;5036950;28;20232;-73
2022/07/30 08:44:28;;;;;;;7.35;4.53;;;22.00;99.90;;;;;;5041295;28;20233;-73
2022/07/30 08:46:56;;;;;;;6.93;4.65;;;22.10;99.90;;;;;;5039368;28;20209;-71
2022/07/30 08:49:24;;;;;;;5.88;4.30;;;22.20;99.90;;;;;;5041004;28;20186;-73
2022/07/30 08:51:50;;;;;;;7.45;5.10;;;22.20;99.90;;;;;;5034028;28;20197;-75
2022/07/30 08:54:19;;;;;;;12.35;6.40;;;22.30;99.90;;;;;;5037374;28;20167;-72
2022/07/30 08:56:48;;;;;;;6.80;4.55;;;22.40;99.90;;;;;;5040793;28;20220;-71
2022/07/30 08:59:18;;;;;;;7.15;4.65;;;22.40;99.90;;;;;;5036542;28;20179;-73
2022/07/30 09:01:46;;;;;;;7.60;4.88;;;22.50;99.90;;;;;;5040693;28;20166;-72
2022/07/30 09:04:13;;;;;;;6.80;4.95;;;22.50;99.90;;;;;;5040568;28;20281;-72
2022/07/30 09:06:43;;;;;;;7.10;4.30;;;22.60;99.90;;;;;;5040174;28;20181;-73
2022/07/30 09:09:09;;;;;;;8.35;4.55;;;22.60;99.90;;;;;;5038291;28;20171;-72
2022/07/30 09:11:39;;;;;;;10.07;5.35;;;22.70;99.90;;;;;;5044194;28;20185;-68
2022/07/30 09:14:17;;;;;;;8.65;4.47;;;22.80;99.90;;;;;;5058424;28;20183;-70
2022/07/30 09:16:44;;;;;;;9.45;4.47;;;22.90;99.90;;;;;;5037691;28;20201;-72
2022/07/30 09:19:17;;;;;;;6.35;4.07;;;23.00;99.80;;;;;;5037024;28;20242;-70
2022/07/30 09:22:05;;;;;;;7.45;4.78;;;23.00;99.70;;;;;;5041365;28;20234;-71
2022/07/30 09:24:42;;;;;;;4.63;3.38;;;23.10;99.50;;;;;;5046428;28;20181;-70
2022/07/30 09:27:09;;;;;;;7.70;4.47;;;23.20;99.40;;;;;;5040009;28;20199;-71
2022/07/30 09:29:38;;;;;;;6.15;3.83;;;23.30;99.50;;;;;;5040172;28;20216;-74
2022/07/30 09:32:05;;;;;;;6.43;3.67;;;23.30;99.10;;;;;;5036690;28;20266;-71
2022/07/30 09:34:36;;;;;;;5.30;3.45;;;23.40;98.40;;;;;;5037899;28;20332;-70
2022/07/30 09:37:16;;;;;;;6.13;3.80;;;23.40;97.90;;;;;;5037657;28;20206;-72
2022/07/30 09:39:46;;;;;;;5.00;3.53;;;23.50;98.00;;;;;;5042411;28;20181;-70
2022/07/30 09:42:20;;;;;;;5.82;3.60;;;23.50;98.00;;;;;;5040941;28;20306;-70
2022/07/30 09:44:47;;;;;;;5.47;3.30;;;23.60;98.00;;;;;;5041868;28;20174;-72
2022/07/30 09:47:32;;;;;;;7.07;3.72;;;23.60;97.70;;;;;;5042978;28;20182;-71
2022/07/30 09:50:08;;;;;;;4.18;3.03;;;23.70;97.20;;;;;;5040643;28;20194;-72
2022/07/30 09:52:36;;;;;;;3.75;2.60;;;23.70;96.80;;;;;;5039448;28;20229;-70
2022/07/30 09:55:04;;;;;;;4.95;2.95;;;23.70;96.90;;;;;;5041674;28;20328;-72
2022/07/30 09:57:32;;;;;;;5.88;3.30;;;23.70;96.60;;;;;;5036312;28;20198;-71
2022/07/30 10:00:22;;;;;;;4.32;2.75;;;23.70;96.60;;;;;;5116064;23;20242;-76
2022/07/30 10:02:51;;;;;;;7.93;3.50;;;23.70;96.60;;;;;;5006890;28;20225;-74
2022/07/30 10:05:26;;;;;;;5.28;3.10;;;23.80;97.00;;;;;;5012946;28;20188;-74
2022/07/30 10:08:01;;;;;;;3.80;2.67;;;23.80;96.30;;;;;;5013923;28;20198;-72
2022/07/30 10:10:30;;;;;;;4.10;2.70;;;23.90;96.30;;;;;;5005443;28;20197;-75
2022/07/30 10:13:07;;;;;;;5.75;3.17;;;23.90;96.50;;;;;;5010849;28;20183;-73
2022/07/30 10:15:34;;;;;;;6.05;3.22;;;23.90;96.30;;;;;;5009545;28;20218;-71
2022/07/30 10:18:02;;;;;;;4.90;3.28;;;24.00;96.50;;;;;;5007567;28;20203;-74
2022/07/30 10:20:28;;;;;;;4.85;3.50;;;24.10;96.10;;;;;;5017087;28;20202;-65
2022/07/30 10:22:58;;;;;;;5.45;3.17;;;24.20;96.30;;;;;;5010568;28;20198;-74
2022/07/30 10:25:30;;;;;;;5.15;3.00;;;24.30;96.40;;;;;;5003647;28;20175;-75
2022/07/30 10:27:59;;;;;;;4.63;3.28;;;24.30;96.30;;;;;;5004891;28;20210;-74
2022/07/30 10:30:26;;;;;;;4.60;3.38;;;24.50;96.30;;;;;;5012325;28;20246;-74
2022/07/30 10:32:52;;;;;;;9.27;4.05;;;24.60;95.80;;;;;;5010272;28;20294;-72
2022/07/30 10:35:18;;;;;;;6.63;4.05;;;24.90;95.60;;;;;;5027537;28;20207;-77
2022/07/30 10:37:50;;;;;;;6.85;3.70;;;25.10;95.20;;;;;;5009531;28;20202;-69
2022/07/30 10:40:53;;;;;;;4.97;3.17;;;25.30;94.40;;;;;;5014344;28;20196;-72
2022/07/30 10:43:40;;;;;;;3.50;2.67;;;25.60;93.80;;;;;;4994604;28;20233;-75
2022/07/30 10:46:14;;;;;;;5.97;2.42;;;25.90;93.80;;;;;;5012209;28;20193;-69
2022/07/30 10:48:42;;;;;;;5.65;3.22;;;26.10;94.00;;;;;;5005209;28;20198;-76
2022/07/30 10:51:14;;;;;;;3.65;2.78;;;26.50;93.30;;;;;;5015761;28;20183;-76
2022/07/30 10:53:45;;;;;;;6.20;3.03;;;26.60;91.90;;;;;;5003964;28;20238;-75
2022/07/30 10:56:28;;;;;;;4.45;2.22;;;26.80;92.20;;;;;;5006517;28;20179;-76
2022/07/30 10:59:12;;;;;;;4.10;2.33;;;27.00;90.80;;;;;;5010618;28;20285;-76
2022/07/30 11:01:49;;;;;;;3.70;2.13;;;27.30;88.10;;;;;;5004805;28;20701;-74
2022/07/30 11:04:21;;;;;;;3.40;2.05;;;27.40;85.80;;;;;;5010926;28;20174;-76
2022/07/30 11:06:49;;;;;;;3.15;2.03;;;27.50;88.40;;;;;;5005379;28;20190;-74
2022/07/30 11:09:59;;;;;;;3.00;2.30;;;27.60;88.40;;;;;;5010380;28;20168;-76
2022/07/30 11:12:44;;;;;;;3.90;2.30;;;27.70;85.40;;;;;;5012348;28;20198;-71
2022/07/30 11:15:14;;;;;;;3.80;2.30;;;28.00;84.40;;;;;;5033822;28;20194;-74
2022/07/30 11:18:10;;;;;;;5.50;2.85;;;28.10;85.80;;;;;;5021359;28;20203;-74
2022/07/30 11:21:16;;;;;;;2.92;2.05;;;28.20;81.10;;;;;;5007117;28;20240;-75
2022/07/30 11:23:47;;;;;;;3.85;2.30;;;28.40;81.50;;;;;;5005192;28;20190;-76
2022/07/30 11:26:38;;;;;;;4.40;2.63;;;28.50;82.70;;;;;;5010316;28;20270;-77
2022/07/30 11:29:05;;;;;;;4.32;2.35;;;28.60;78.60;;;;;;5019464;28;20229;-74
2022/07/30 11:31:32;;;;;;;6.38;2.97;;;28.60;81.30;;;;;;5013820;28;20194;-73
2022/07/30 11:34:17;;;;;;;4.60;2.40;;;28.60;74.60;;;;;;5016243;28;20187;-75
2022/07/30 11:37:16;;;;;;;4.20;2.03;;;28.60;70.00;;;;;;5011400;28;20239;-73
2022/07/30 11:39:57;;;;;;;4.22;2.10;;;28.70;71.00;;;;;;5013339;28;20180;-74
2022/07/30 11:42:26;;;;;;;3.72;2.35;;;28.60;71.60;;;;;;5014942;28;20199;-72
2022/07/30 11:44:53;;;;;;;2.88;2.00;;;28.60;70.40;;;;;;5016014;28;20273;-74
2022/07/30 11:47:19;;;;;;;3.40;2.25;;;28.60;70.10;;;;;;5016607;28;20183;-75
2022/07/30 11:49:54;;;;;;;3.30;1.90;;;28.70;70.10;;;;;;5011819;28;20252;-77
2022/07/30 11:52:28;;;;;;;3.42;1.90;;;28.70;67.80;;;;;;5007021;28;20183;-75
2022/07/30 11:55:08;;;;;;;3.97;2.28;;;28.80;67.80;;;;;;5013139;28;20229;-75
2022/07/30 11:57:49;;;;;;;4.30;2.40;;;28.90;70.00;;;;;;5018492;28;20213;-71
2022/07/30 12:00:24;;;;;;;4.40;2.40;;;29.10;68.50;;;;;;5015383;28;20193;-75
2022/07/30 12:03:02;;;;;;;4.65;2.53;;;29.20;69.50;;;;;;5016945;28;20183;-71
2022/07/30 12:05:37;;;;;;;4.88;3.00;;;29.40;69.70;;;;;;5021620;28;20179;-74
2022/07/30 12:08:06;;;;;;;3.85;2.72;;;29.50;69.30;;;;;;5009136;28;20245;-76
2022/07/30 12:10:37;;;;;;;4.30;2.63;;;29.50;70.20;;;;;;5013366;28;20206;-75
2022/07/30 12:16:28;;;;;;;;;;;;;;;;;;;;;
2022/07/30 12:18:59;;;;;;;3.92;2.72;;;29.70;63.00;;;;;;5006054;28;20289;-73
2022/07/30 12:21:27;;;;;;;3.13;2.53;;;29.80;66.10;;;;;;5016764;28;20202;-72
2022/07/30 12:23:59;;;;;;;4.13;2.83;;;29.90;66.50;;;;;;5020680;28;20205;-68
2022/07/30 12:26:32;;;;;;;3.30;2.63;;;29.90;64.70;;;;;;5018928;28;20190;-68
2022/07/30 12:29:00;;;;;;;4.05;2.50;;;30.00;64.40;;;;;;5019229;28;20191;-69
2022/07/30 12:31:27;;;;;;;5.70;2.70;;;30.00;65.80;;;;;;5012433;28;20243;-66
2022/07/30 12:33:55;;;;;;;6.07;2.85;;;30.00;65.50;;;;;;5010485;28;20207;-70
2022/07/30 12:36:38;;;;;;;2.90;2.38;;;30.10;65.50;;;;;;5012906;28;20195;-70
2022/07/30 12:39:05;;;;;;;3.05;2.20;;;30.00;64.20;;;;;;5009221;28;20186;-69
2022/07/30 12:41:41;;;;;;;3.95;2.28;;;30.10;66.30;;;;;;5020760;28;20175;-70
2022/07/30 12:44:30;;;;;;;3.95;2.55;;;30.20;65.00;;;;;;5036106;28;20244;-70
2022/07/30 12:46:55;;;;;;;5.35;2.63;;;30.30;62.40;;;;;;5016318;28;20171;-65
2022/07/30 12:49:28;;;;;;;4.78;2.88;;;30.30;63.50;;;;;;5012630;28;20246;-64
2022/07/30 12:51:53;;;;;;;3.50;2.30;;;30.30;59.80;;;;;;5018184;28;20222;-70
2022/07/30 12:54:19;;;;;;;4.35;2.30;;;30.10;61.30;;;;;;5017511;28;20251;-69
2022/07/30 12:57:08;;;;;;;3.80;1.90;;;30.00;61.70;;;;;;5016117;28;20213;-68
2022/07/30 12:59:37;;;;;;;3.30;2.13;;;29.90;58.80;;;;;;5019061;28;20187;-69
2022/07/30 13:02:05;;;;;;;2.55;1.70;;;29.90;61.30;;;;;;5014749;28;20199;-71
2022/07/30 13:04:31;;;;;;;4.82;2.20;;;29.90;60.20;;;;;;5014665;28;20419;-72
2022/07/30 13:07:02;;;;;;;4.07;2.45;;;30.00;60.30;;;;;;5034008;28;20206;-70
2022/07/30 13:09:30;;;;;;;2.92;2.25;;;30.00;58.60;;;;;;5022481;28;20263;-67
2022/07/30 13:11:56;;;;;;;4.03;2.63;;;30.10;60.00;;;;;;5018557;28;20183;-72
2022/07/30 13:14:22;;;;;;;4.72;1.88;;;30.20;60.50;;;;;;5007717;28;20238;-67
2022/07/30 13:16:50;;;;;;;3.13;2.05;;;30.30;60.70;;;;;;5014789;28;20216;-68
2022/07/30 13:19:15;;;;;;;2.10;1.70;;;30.40;59.70;;;;;;5018271;28;20277;-69
2022/07/30 13:21:44;;;;;;;4.75;2.28;;;30.50;59.60;;;;;;5013262;28;21397;-71
2022/07/30 13:24:11;;;;;;;3.58;1.73;;;30.50;59.10;;;;;;5019048;28;20190;-66
2022/07/30 13:26:38;;;;;;;2.65;1.75;;;30.50;59.30;;;;;;5015394;28;20237;-75
2022/07/30 13:29:04;;;;;;;2.67;2.05;;;30.60;59.50;;;;;;5014038;28;20203;-74
2022/07/30 13:31:32;;;;;;;3.20;2.10;;;30.70;58.90;;;;;;5013967;28;20186;-73
2022/07/30 13:33:58;;;;;;;3.17;1.92;;;30.80;58.40;;;;;;5014081;28;20154;-74
2022/07/30 13:36:24;;;;;;;4.50;2.30;;;30.90;58.30;;;;;;5016485;28;20197;-75
2022/07/30 13:38:49;;;;;;;3.28;2.00;;;31.00;58.20;;;;;;5010882;28;20274;-72
2022/07/30 13:41:18;;;;;;;3.35;2.05;;;31.00;57.80;;;;;;5011956;28;20217;-74
2022/07/30 13:43:45;;;;;;;2.30;1.80;;;31.10;57.70;;;;;;5012820;28;20170;-73
2022/07/30 13:46:13;;;;;;;3.75;1.92;;;31.10;57.30;;;;;;5018295;28;20312;-75
2022/07/30 13:48:41;;;;;;;3.35;2.00;;;31.20;57.70;;;;;;5017923;28;20190;-70
2022/07/30 13:51:09;;;;;;;3.70;2.08;;;31.30;56.90;;;;;;5017240;28;20175;-74
2022/07/30 13:53:37;;;;;;;2.75;1.92;;;31.30;57.00;;;;;;5011120;28;20175;-73
2022/07/30 13:56:02;;;;;;;2.83;1.80;;;31.30;55.80;;;;;;5015900;28;20186;-70
2022/07/30 13:58:28;;;;;;;2.38;1.80;;;31.30;56.10;;;;;;5010078;28;20214;-74